sensor_id;sensor_type;location;lat;lon;timestamp;P1;durP1;ratioP1;P2;durP2;ratioP2
59193;SDS011;44967;48.598;15.650;2022-07-10T00:02:10;1.58;;;1.45;;
59193;SDS011;44967;48.598;15.650;2022-07-10T00:04:36;1.52;;;1.42;;
59193;SDS011;44967;48.598;15.650;2022-07-10T00:07:01;1.58;;;1.48;;
59193;SDS011;44967;48.598;15.650;2022-07-10T00:09:29;1.85;;;1.20;;
59193;SDS011;44967;48.598;15.650;2022-07-10T00:11:55;1.73;;;1.45;;
59193;SDS011;44967;48.598;15.650;2022-07-10T00:14:21;3.30;;;2.15;;
59193;SDS011;44967;48.598;15.650;2022-07-10T00:16:47;2.88;;;2.10;;
59193;SDS011;44967;48.598;15.650;2022-07-10T00:19:12;2.58;;;1.75;;
59193;SDS011;44967;48.598;15.650;2022-07-10T00:21:38;3.47;;;1.52;;
59193;SDS011;44967;48.598;15.650;2022-07-10T00:24:04;2.15;;;1.48;;
59193;SDS011;44967;48.598;15.650;2022-07-10T00:26:30;1.50;;;1.40;;
59193;SDS011;44967;48.598;15.650;2022-07-10T00:28:55;2.05;;;1.58;;
59193;SDS011;44967;48.598;15.650;2022-07-10T00:31:21;1.40;;;1.30;;
59193;SDS011;44967;48.598;15.650;2022-07-10T00:33:47;2.75;;;1.85;;
59193;SDS011;44967;48.598;15.650;2022-07-10T00:36:16;1.33;;;1.23;;
59193;SDS011;44967;48.598;15.650;2022-07-10T00:38:41;1.60;;;1.50;;
59193;SDS011;44967;48.598;15.650;2022-07-10T00:41:08;4.20;;;1.70;;
59193;SDS011;44967;48.598;15.650;2022-07-10T00:43:53;1.80;;;1.58;;
59193;SDS011;44967;48.598;15.650;2022-07-10T00:46:23;1.50;;;1.40;;
59193;SDS011;44967;48.598;15.650;2022-07-10T00:48:51;1.67;;;1.55;;
59193;SDS011;44967;48.598;15.650;2022-07-10T00:51:18;2.40;;;1.73;;
59193;SDS011;44967;48.598;15.650;2022-07-10T00:53:47;1.55;;;1.25;;
59193;SDS011;44967;48.598;15.650;2022-07-10T00:56:17;2.10;;;1.55;;
59193;SDS011;44967;48.598;15.650;2022-07-10T00:58:47;2.22;;;2.03;;
59193;SDS011;44967;48.598;15.650;2022-07-10T01:01:14;3.88;;;1.90;;
59193;SDS011;44967;48.598;15.650;2022-07-10T01:03:42;2.00;;;1.50;;
59193;SDS011;44967;48.598;15.650;2022-07-10T01:06:09;2.42;;;1.80;;
59193;SDS011;44967;48.598;15.650;2022-07-10T01:08:34;2.90;;;1.58;;
59193;SDS011;44967;48.598;15.650;2022-07-10T01:11:01;1.73;;;1.60;;
59193;SDS011;44967;48.598;15.650;2022-07-10T01:13:27;1.52;;;1.25;;
59193;SDS011;44967;48.598;15.650;2022-07-10T01:15:53;2.40;;;1.63;;
59193;SDS011;44967;48.598;15.650;2022-07-10T01:18:19;2.42;;;1.80;;
59193;SDS011;44967;48.598;15.650;2022-07-10T01:20:45;2.63;;;1.63;;
59193;SDS011;44967;48.598;15.650;2022-07-10T01:23:11;3.33;;;1.90;;
59193;SDS011;44967;48.598;15.650;2022-07-10T01:25:36;2.10;;;1.90;;
59193;SDS011;44967;48.598;15.650;2022-07-10T01:28:02;1.40;;;1.30;;
59193;SDS011;44967;48.598;15.650;2022-07-10T01:30:28;1.75;;;1.52;;
59193;SDS011;44967;48.598;15.650;2022-07-10T01:32:54;1.80;;;1.50;;
59193;SDS011;44967;48.598;15.650;2022-07-10T01:35:19;2.13;;;2.00;;
59193;SDS011;44967;48.598;15.650;2022-07-10T01:37:46;2.45;;;1.60;;
59193;SDS011;44967;48.598;15.650;2022-07-10T01:40:11;2.00;;;1.67;;
59193;SDS011;44967;48.598;15.650;2022-07-10T01:42:38;1.88;;;1.77;;
59193;SDS011;44967;48.598;15.650;2022-07-10T01:45:07;1.70;;;1.60;;
59193;SDS011;44967;48.598;15.650;2022-07-10T01:47:34;2.65;;;1.85;;
59193;SDS011;44967;48.598;15.650;2022-07-10T01:50:00;1.83;;;1.73;;
59193;SDS011;44967;48.598;15.650;2022-07-10T01:52:27;3.05;;;1.85;;
59193;SDS011;44967;48.598;15.650;2022-07-10T01:54:52;2.95;;;1.80;;
59193;SDS011;44967;48.598;15.650;2022-07-10T01:57:18;2.30;;;1.67;;
59193;SDS011;44967;48.598;15.650;2022-07-10T01:59:44;2.28;;;1.50;;
59193;SDS011;44967;48.598;15.650;2022-07-10T02:02:09;3.40;;;1.40;;
59193;SDS011;44967;48.598;15.650;2022-07-10T02:04:35;3.13;;;1.60;;
59193;SDS011;44967;48.598;15.650;2022-07-10T02:09:33;1.73;;;1.60;;
59193;SDS011;44967;48.598;15.650;2022-07-10T02:11:59;3.50;;;1.90;;
59193;SDS011;44967;48.598;15.650;2022-07-10T02:14:25;2.97;;;1.90;;
59193;SDS011;44967;48.598;15.650;2022-07-10T02:16:50;2.15;;;1.88;;
59193;SDS011;44967;48.598;15.650;2022-07-10T02:19:16;2.65;;;1.90;;
59193;SDS011;44967;48.598;15.650;2022-07-10T02:21:42;2.10;;;1.90;;
59193;SDS011;44967;48.598;15.650;2022-07-10T02:24:07;2.40;;;1.70;;
59193;SDS011;44967;48.598;15.650;2022-07-10T02:26:33;1.92;;;1.80;;
59193;SDS011;44967;48.598;15.650;2022-07-10T02:28:58;1.70;;;1.60;;
59193;SDS011;44967;48.598;15.650;2022-07-10T02:31:24;2.15;;;1.70;;
59193;SDS011;44967;48.598;15.650;2022-07-10T02:33:49;2.20;;;2.00;;
59193;SDS011;44967;48.598;15.650;2022-07-10T02:36:15;2.00;;;1.90;;
59193;SDS011;44967;48.598;15.650;2022-07-10T02:38:41;2.60;;;1.45;;
59193;SDS011;44967;48.598;15.650;2022-07-10T02:41:06;2.05;;;1.42;;
59193;SDS011;44967;48.598;15.650;2022-07-10T02:43:32;4.10;;;1.98;;
59193;SDS011;44967;48.598;15.650;2022-07-10T02:45:58;3.17;;;2.10;;
59193;SDS011;44967;48.598;15.650;2022-07-10T02:48:24;4.40;;;1.90;;
59193;SDS011;44967;48.598;15.650;2022-07-10T02:50:49;1.95;;;1.80;;
59193;SDS011;44967;48.598;15.650;2022-07-10T02:53:15;2.20;;;1.60;;
59193;SDS011;44967;48.598;15.650;2022-07-10T02:55:40;2.45;;;1.80;;
59193;SDS011;44967;48.598;15.650;2022-07-10T02:58:06;1.98;;;1.80;;
59193;SDS011;44967;48.598;15.650;2022-07-10T03:00:32;2.78;;;2.35;;
59193;SDS011;44967;48.598;15.650;2022-07-10T03:02:57;2.90;;;1.98;;
59193;SDS011;44967;48.598;15.650;2022-07-10T03:05:23;4.22;;;2.03;;
59193;SDS011;44967;48.598;15.650;2022-07-10T03:07:49;2.20;;;1.90;;
59193;SDS011;44967;48.598;15.650;2022-07-10T03:10:14;2.65;;;1.70;;
59193;SDS011;44967;48.598;15.650;2022-07-10T03:12:40;2.35;;;2.03;;
59193;SDS011;44967;48.598;15.650;2022-07-10T03:15:06;3.53;;;2.05;;
59193;SDS011;44967;48.598;15.650;2022-07-10T03:17:32;2.67;;;2.22;;
59193;SDS011;44967;48.598;15.650;2022-07-10T03:19:57;2.55;;;1.98;;
59193;SDS011;44967;48.598;15.650;2022-07-10T03:22:23;2.15;;;2.00;;
59193;SDS011;44967;48.598;15.650;2022-07-10T03:24:48;2.63;;;2.30;;
59193;SDS011;44967;48.598;15.650;2022-07-10T03:27:14;4.97;;;2.15;;
59193;SDS011;44967;48.598;15.650;2022-07-10T03:29:41;4.10;;;2.08;;
59193;SDS011;44967;48.598;15.650;2022-07-10T03:32:06;2.95;;;2.40;;
59193;SDS011;44967;48.598;15.650;2022-07-10T03:34:32;4.70;;;2.30;;
59193;SDS011;44967;48.598;15.650;2022-07-10T03:36:59;2.30;;;2.10;;
59193;SDS011;44967;48.598;15.650;2022-07-10T03:39:28;2.63;;;2.17;;
59193;SDS011;44967;48.598;15.650;2022-07-10T03:41:53;4.28;;;2.72;;
59193;SDS011;44967;48.598;15.650;2022-07-10T03:44:19;3.88;;;2.20;;
59193;SDS011;44967;48.598;15.650;2022-07-10T03:46:45;3.45;;;2.38;;
59193;SDS011;44967;48.598;15.650;2022-07-10T03:49:11;2.47;;;2.25;;
59193;SDS011;44967;48.598;15.650;2022-07-10T03:51:36;2.47;;;2.28;;
59193;SDS011;44967;48.598;15.650;2022-07-10T03:54:02;5.05;;;2.75;;
59193;SDS011;44967;48.598;15.650;2022-07-10T03:56:28;4.32;;;2.40;;
59193;SDS011;44967;48.598;15.650;2022-07-10T03:59:11;3.22;;;2.25;;
59193;SDS011;44967;48.598;15.650;2022-07-10T04:01:37;2.10;;;1.90;;
59193;SDS011;44967;48.598;15.650;2022-07-10T04:04:03;3.80;;;2.30;;
59193;SDS011;44967;48.598;15.650;2022-07-10T04:06:29;3.65;;;2.28;;
59193;SDS011;44967;48.598;15.650;2022-07-10T04:08:54;2.83;;;1.95;;
59193;SDS011;44967;48.598;15.650;2022-07-10T04:11:20;4.40;;;2.47;;
59193;SDS011;44967;48.598;15.650;2022-07-10T04:13:46;3.17;;;2.25;;
59193;SDS011;44967;48.598;15.650;2022-07-10T04:16:11;2.63;;;2.00;;
59193;SDS011;44967;48.598;15.650;2022-07-10T04:18:41;2.38;;;2.17;;
59193;SDS011;44967;48.598;15.650;2022-07-10T04:21:07;3.85;;;2.10;;
59193;SDS011;44967;48.598;15.650;2022-07-10T04:23:33;3.47;;;2.30;;
59193;SDS011;44967;48.598;15.650;2022-07-10T04:25:59;3.55;;;2.20;;
59193;SDS011;44967;48.598;15.650;2022-07-10T04:28:25;3.67;;;2.28;;
59193;SDS011;44967;48.598;15.650;2022-07-10T04:30:51;2.38;;;2.17;;
59193;SDS011;44967;48.598;15.650;2022-07-10T04:33:16;2.78;;;1.98;;
59193;SDS011;44967;48.598;15.650;2022-07-10T04:35:42;3.30;;;2.25;;
59193;SDS011;44967;48.598;15.650;2022-07-10T04:38:08;2.35;;;2.17;;
59193;SDS011;44967;48.598;15.650;2022-07-10T04:40:33;6.40;;;2.53;;
59193;SDS011;44967;48.598;15.650;2022-07-10T04:42:59;2.95;;;2.08;;
59193;SDS011;44967;48.598;15.650;2022-07-10T04:45:25;6.57;;;2.60;;
59193;SDS011;44967;48.598;15.650;2022-07-10T04:47:50;2.10;;;2.00;;
59193;SDS011;44967;48.598;15.650;2022-07-10T04:50:17;3.75;;;2.22;;
59193;SDS011;44967;48.598;15.650;2022-07-10T04:52:43;2.88;;;2.45;;
59193;SDS011;44967;48.598;15.650;2022-07-10T04:55:09;3.17;;;2.20;;
59193;SDS011;44967;48.598;15.650;2022-07-10T04:57:35;2.22;;;2.03;;
59193;SDS011;44967;48.598;15.650;2022-07-10T05:00:01;3.05;;;2.10;;
59193;SDS011;44967;48.598;15.650;2022-07-10T05:02:27;2.53;;;2.25;;
59193;SDS011;44967;48.598;15.650;2022-07-10T05:04:53;2.88;;;1.98;;
59193;SDS011;44967;48.598;15.650;2022-07-10T05:07:18;2.15;;;1.98;;
59193;SDS011;44967;48.598;15.650;2022-07-10T05:09:44;2.67;;;2.10;;
59193;SDS011;44967;48.598;15.650;2022-07-10T05:12:10;4.88;;;2.40;;
59193;SDS011;44967;48.598;15.650;2022-07-10T05:14:35;3.63;;;2.30;;
59193;SDS011;44967;48.598;15.650;2022-07-10T05:17:01;3.13;;;2.38;;
59193;SDS011;44967;48.598;15.650;2022-07-10T05:19:27;3.20;;;2.50;;
59193;SDS011;44967;48.598;15.650;2022-07-10T05:21:52;3.33;;;2.60;;
59193;SDS011;44967;48.598;15.650;2022-07-10T05:24:18;2.50;;;2.30;;
59193;SDS011;44967;48.598;15.650;2022-07-10T05:26:43;4.47;;;2.20;;
59193;SDS011;44967;48.598;15.650;2022-07-10T05:29:09;2.42;;;2.20;;
59193;SDS011;44967;48.598;15.650;2022-07-10T05:31:34;3.65;;;2.30;;
59193;SDS011;44967;48.598;15.650;2022-07-10T05:34:00;2.53;;;2.33;;
59193;SDS011;44967;48.598;15.650;2022-07-10T05:36:26;3.28;;;2.28;;
59193;SDS011;44967;48.598;15.650;2022-07-10T05:38:51;2.90;;;2.63;;
59193;SDS011;44967;48.598;15.650;2022-07-10T05:41:17;3.28;;;2.65;;
59193;SDS011;44967;48.598;15.650;2022-07-10T05:43:43;5.15;;;2.90;;
59193;SDS011;44967;48.598;15.650;2022-07-10T05:46:08;3.90;;;2.53;;
59193;SDS011;44967;48.598;15.650;2022-07-10T05:48:34;3.13;;;2.85;;
59193;SDS011;44967;48.598;15.650;2022-07-10T05:51:00;4.72;;;2.55;;
59193;SDS011;44967;48.598;15.650;2022-07-10T05:53:25;2.65;;;2.45;;
59193;SDS011;44967;48.598;15.650;2022-07-10T05:55:51;4.55;;;3.00;;
59193;SDS011;44967;48.598;15.650;2022-07-10T05:58:16;3.90;;;3.08;;
59193;SDS011;44967;48.598;15.650;2022-07-10T06:00:42;2.88;;;2.65;;
59193;SDS011;44967;48.598;15.650;2022-07-10T06:03:09;3.95;;;2.50;;
59193;SDS011;44967;48.598;15.650;2022-07-10T06:05:36;2.88;;;2.42;;
59193;SDS011;44967;48.598;15.650;2022-07-10T06:08:02;2.70;;;2.50;;
59193;SDS011;44967;48.598;15.650;2022-07-10T06:10:28;5.85;;;2.50;;
59193;SDS011;44967;48.598;15.650;2022-07-10T06:12:53;2.40;;;2.20;;
59193;SDS011;44967;48.598;15.650;2022-07-10T06:15:19;3.63;;;2.75;;
59193;SDS011;44967;48.598;15.650;2022-07-10T06:17:44;3.17;;;2.88;;
59193;SDS011;44967;48.598;15.650;2022-07-10T06:20:10;3.05;;;2.65;;
59193;SDS011;44967;48.598;15.650;2022-07-10T06:22:36;3.35;;;2.85;;
59193;SDS011;44967;48.598;15.650;2022-07-10T06:25:06;2.85;;;2.65;;
59193;SDS011;44967;48.598;15.650;2022-07-10T06:27:33;4.32;;;2.80;;
59193;SDS011;44967;48.598;15.650;2022-07-10T06:29:59;3.33;;;2.45;;
59193;SDS011;44967;48.598;15.650;2022-07-10T06:32:26;2.63;;;2.30;;
59193;SDS011;44967;48.598;15.650;2022-07-10T06:34:52;4.28;;;2.80;;
59193;SDS011;44967;48.598;15.650;2022-07-10T06:37:19;2.97;;;2.67;;
59193;SDS011;44967;48.598;15.650;2022-07-10T06:39:45;4.25;;;2.60;;
59193;SDS011;44967;48.598;15.650;2022-07-10T06:42:12;4.25;;;2.92;;
59193;SDS011;44967;48.598;15.650;2022-07-10T06:44:37;3.35;;;2.33;;
59193;SDS011;44967;48.598;15.650;2022-07-10T06:47:03;3.88;;;2.50;;
59193;SDS011;44967;48.598;15.650;2022-07-10T06:49:48;4.55;;;2.60;;
59193;SDS011;44967;48.598;15.650;2022-07-10T06:52:14;3.45;;;2.53;;
59193;SDS011;44967;48.598;15.650;2022-07-10T06:54:40;3.65;;;2.20;;
59193;SDS011;44967;48.598;15.650;2022-07-10T06:57:07;2.80;;;2.25;;
59193;SDS011;44967;48.598;15.650;2022-07-10T06:59:33;3.60;;;2.22;;
59193;SDS011;44967;48.598;15.650;2022-07-10T07:01:58;4.38;;;1.88;;
59193;SDS011;44967;48.598;15.650;2022-07-10T07:04:24;2.25;;;1.95;;
59193;SDS011;44967;48.598;15.650;2022-07-10T07:06:50;4.00;;;2.25;;
59193;SDS011;44967;48.598;15.650;2022-07-10T07:09:15;4.63;;;2.10;;
59193;SDS011;44967;48.598;15.650;2022-07-10T07:11:41;3.47;;;2.38;;
59193;SDS011;44967;48.598;15.650;2022-07-10T07:14:06;2.97;;;2.05;;
59193;SDS011;44967;48.598;15.650;2022-07-10T07:16:32;3.00;;;2.20;;
59193;SDS011;44967;48.598;15.650;2022-07-10T07:19:08;3.65;;;2.03;;
59193;SDS011;44967;48.598;15.650;2022-07-10T07:21:36;3.45;;;1.95;;
59193;SDS011;44967;48.598;15.650;2022-07-10T07:24:21;2.42;;;1.67;;
59193;SDS011;44967;48.598;15.650;2022-07-10T07:26:46;2.97;;;1.30;;
59193;SDS011;44967;48.598;15.650;2022-07-10T07:29:13;2.15;;;1.38;;
59193;SDS011;44967;48.598;15.650;2022-07-10T07:31:42;2.20;;;1.30;;
59193;SDS011;44967;48.598;15.650;2022-07-10T07:34:08;1.83;;;1.17;;
59193;SDS011;44967;48.598;15.650;2022-07-10T07:36:34;3.33;;;1.38;;
59193;SDS011;44967;48.598;15.650;2022-07-10T07:38:59;2.03;;;1.25;;
59193;SDS011;44967;48.598;15.650;2022-07-10T07:41:25;1.77;;;1.20;;
59193;SDS011;44967;48.598;15.650;2022-07-10T07:43:50;2.60;;;1.50;;
59193;SDS011;44967;48.598;15.650;2022-07-10T07:46:17;1.83;;;1.20;;
59193;SDS011;44967;48.598;15.650;2022-07-10T07:48:43;4.47;;;1.00;;
59193;SDS011;44967;48.598;15.650;2022-07-10T07:51:09;2.28;;;1.30;;
59193;SDS011;44967;48.598;15.650;2022-07-10T07:53:35;2.47;;;1.00;;
59193;SDS011;44967;48.598;15.650;2022-07-10T07:56:00;1.05;;;0.95;;
59193;SDS011;44967;48.598;15.650;2022-07-10T07:58:26;4.55;;;1.20;;
59193;SDS011;44967;48.598;15.650;2022-07-10T08:00:52;2.25;;;1.17;;
59193;SDS011;44967;48.598;15.650;2022-07-10T08:03:17;1.70;;;1.20;;
59193;SDS011;44967;48.598;15.650;2022-07-10T08:05:43;4.88;;;1.50;;
59193;SDS011;44967;48.598;15.650;2022-07-10T08:08:08;1.33;;;1.17;;
59193;SDS011;44967;48.598;15.650;2022-07-10T08:10:35;2.85;;;1.30;;
59193;SDS011;44967;48.598;15.650;2022-07-10T08:13:01;3.53;;;1.50;;
59193;SDS011;44967;48.598;15.650;2022-07-10T08:15:27;4.15;;;1.50;;
59193;SDS011;44967;48.598;15.650;2022-07-10T08:17:54;2.95;;;1.33;;
59193;SDS011;44967;48.598;15.650;2022-07-10T08:20:21;2.92;;;1.70;;
59193;SDS011;44967;48.598;15.650;2022-07-10T08:22:48;1.90;;;1.38;;
59193;SDS011;44967;48.598;15.650;2022-07-10T08:25:13;2.10;;;1.30;;
59193;SDS011;44967;48.598;15.650;2022-07-10T08:27:40;1.80;;;1.33;;
59193;SDS011;44967;48.598;15.650;2022-07-10T08:30:06;2.85;;;1.38;;
59193;SDS011;44967;48.598;15.650;2022-07-10T08:32:36;1.38;;;1.10;;
59193;SDS011;44967;48.598;15.650;2022-07-10T08:35:05;2.08;;;1.00;;
59193;SDS011;44967;48.598;15.650;2022-07-10T08:37:38;3.10;;;1.30;;
59193;SDS011;44967;48.598;15.650;2022-07-10T08:40:05;2.92;;;1.20;;
59193;SDS011;44967;48.598;15.650;2022-07-10T08:42:35;2.08;;;0.90;;
59193;SDS011;44967;48.598;15.650;2022-07-10T08:45:00;2.78;;;0.98;;
59193;SDS011;44967;48.598;15.650;2022-07-10T08:47:26;2.80;;;0.90;;
59193;SDS011;44967;48.598;15.650;2022-07-10T08:49:54;0.65;;;0.60;;
59193;SDS011;44967;48.598;15.650;2022-07-10T08:52:24;3.90;;;1.10;;
59193;SDS011;44967;48.598;15.650;2022-07-10T08:54:52;1.63;;;0.60;;
59193;SDS011;44967;48.598;15.650;2022-07-10T08:57:18;1.73;;;0.60;;
59193;SDS011;44967;48.598;15.650;2022-07-10T08:59:45;2.85;;;1.42;;
59193;SDS011;44967;48.598;15.650;2022-07-10T09:02:10;2.38;;;1.13;;
59193;SDS011;44967;48.598;15.650;2022-07-10T09:04:36;2.13;;;1.00;;
59193;SDS011;44967;48.598;15.650;2022-07-10T09:07:01;3.08;;;0.98;;
59193;SDS011;44967;48.598;15.650;2022-07-10T09:09:29;2.85;;;0.98;;
59193;SDS011;44967;48.598;15.650;2022-07-10T09:11:58;2.97;;;1.48;;
59193;SDS011;44967;48.598;15.650;2022-07-10T09:14:26;2.92;;;1.10;;
59193;SDS011;44967;48.598;15.650;2022-07-10T09:16:54;1.23;;;0.70;;
59193;SDS011;44967;48.598;15.650;2022-07-10T09:19:24;2.28;;;0.80;;
59193;SDS011;44967;48.598;15.650;2022-07-10T09:21:54;2.00;;;0.80;;
59193;SDS011;44967;48.598;15.650;2022-07-10T09:24:28;6.38;;;2.03;;
59193;SDS011;44967;48.598;15.650;2022-07-10T09:27:01;6.07;;;2.38;;
59193;SDS011;44967;48.598;15.650;2022-07-10T09:29:30;6.35;;;2.63;;
59193;SDS011;44967;48.598;15.650;2022-07-10T09:32:00;3.53;;;1.00;;
59193;SDS011;44967;48.598;15.650;2022-07-10T09:34:43;1.52;;;1.08;;
59193;SDS011;44967;48.598;15.650;2022-07-10T09:37:36;0.93;;;0.77;;
59193;SDS011;44967;48.598;15.650;2022-07-10T09:40:04;3.13;;;1.30;;
59193;SDS011;44967;48.598;15.650;2022-07-10T09:42:35;3.42;;;1.10;;
59193;SDS011;44967;48.598;15.650;2022-07-10T09:52:59;3.97;;;1.48;;
59193;SDS011;44967;48.598;15.650;2022-07-10T09:55:33;3.05;;;1.25;;
59193;SDS011;44967;48.598;15.650;2022-07-10T09:58:01;1.60;;;1.17;;
59193;SDS011;44967;48.598;15.650;2022-07-10T10:00:29;1.48;;;0.88;;
59193;SDS011;44967;48.598;15.650;2022-07-10T10:03:00;3.95;;;1.20;;
59193;SDS011;44967;48.598;15.650;2022-07-10T10:08:01;4.60;;;1.13;;
59193;SDS011;44967;48.598;15.650;2022-07-10T10:10:34;3.75;;;1.17;;
59193;SDS011;44967;48.598;15.650;2022-07-10T10:13:02;2.67;;;1.05;;
59193;SDS011;44967;48.598;15.650;2022-07-10T10:15:34;3.45;;;1.10;;
59193;SDS011;44967;48.598;15.650;2022-07-10T10:18:00;2.42;;;1.13;;
59193;SDS011;44967;48.598;15.650;2022-07-10T10:20:27;2.72;;;1.30;;
59193;SDS011;44967;48.598;15.650;2022-07-10T10:23:08;3.42;;;1.10;;
59193;SDS011;44967;48.598;15.650;2022-07-10T10:25:35;3.97;;;1.30;;
59193;SDS011;44967;48.598;15.650;2022-07-10T10:28:02;3.78;;;1.10;;
59193;SDS011;44967;48.598;15.650;2022-07-10T10:30:32;2.53;;;1.52;;
59193;SDS011;44967;48.598;15.650;2022-07-10T10:33:01;2.17;;;1.00;;
59193;SDS011;44967;48.598;15.650;2022-07-10T10:35:43;1.55;;;0.85;;
59193;SDS011;44967;48.598;15.650;2022-07-10T10:38:13;2.90;;;1.10;;
59193;SDS011;44967;48.598;15.650;2022-07-10T10:40:40;5.60;;;1.17;;
59193;SDS011;44967;48.598;15.650;2022-07-10T10:43:22;2.05;;;0.77;;
59193;SDS011;44967;48.598;15.650;2022-07-10T10:45:50;2.20;;;0.95;;
59193;SDS011;44967;48.598;15.650;2022-07-10T10:48:17;1.85;;;1.05;;
59193;SDS011;44967;48.598;15.650;2022-07-10T10:50:47;1.48;;;1.00;;
59193;SDS011;44967;48.598;15.650;2022-07-10T10:53:20;2.22;;;1.17;;
59193;SDS011;44967;48.598;15.650;2022-07-10T10:56:21;2.25;;;1.15;;
59193;SDS011;44967;48.598;15.650;2022-07-10T10:58:41;7.32;;;0.90;;
59193;SDS011;44967;48.598;15.650;2022-07-10T11:09:31;3.17;;;1.05;;
59193;SDS011;44967;48.598;15.650;2022-07-10T11:14:24;0.82;;;0.52;;
59193;SDS011;44967;48.598;15.650;2022-07-10T11:16:56;1.70;;;0.73;;
59193;SDS011;44967;48.598;15.650;2022-07-10T11:19:23;2.70;;;0.65;;
59193;SDS011;44967;48.598;15.650;2022-07-10T11:21:52;1.05;;;0.95;;
59193;SDS011;44967;48.598;15.650;2022-07-10T11:30:01;1.13;;;0.70;;
59193;SDS011;44967;48.598;15.650;2022-07-10T11:32:29;0.77;;;0.52;;
59193;SDS011;44967;48.598;15.650;2022-07-10T11:34:55;1.10;;;0.57;;
59193;SDS011;44967;48.598;15.650;2022-07-10T11:37:21;0.82;;;0.47;;
59193;SDS011;44967;48.598;15.650;2022-07-10T11:39:48;2.40;;;0.77;;
59193;SDS011;44967;48.598;15.650;2022-07-10T11:42:14;2.60;;;0.60;;
59193;SDS011;44967;48.598;15.650;2022-07-10T11:44:39;1.08;;;0.68;;
59193;SDS011;44967;48.598;15.650;2022-07-10T11:47:05;2.33;;;0.70;;
59193;SDS011;44967;48.598;15.650;2022-07-10T11:49:32;2.05;;;0.60;;
59193;SDS011;44967;48.598;15.650;2022-07-10T11:52:03;1.95;;;0.77;;
59193;SDS011;44967;48.598;15.650;2022-07-10T11:54:29;1.77;;;0.60;;
59193;SDS011;44967;48.598;15.650;2022-07-10T11:56:55;0.73;;;0.52;;
59193;SDS011;44967;48.598;15.650;2022-07-10T11:59:24;2.03;;;0.65;;
59193;SDS011;44967;48.598;15.650;2022-07-10T12:01:52;3.25;;;0.88;;
59193;SDS011;44967;48.598;15.650;2022-07-10T12:04:19;3.63;;;0.60;;
59193;SDS011;44967;48.598;15.650;2022-07-10T12:06:51;0.82;;;0.47;;
59193;SDS011;44967;48.598;15.650;2022-07-10T12:09:19;0.73;;;0.55;;
59193;SDS011;44967;48.598;15.650;2022-07-10T12:11:59;0.95;;;0.50;;
59193;SDS011;44967;48.598;15.650;2022-07-10T12:14:28;2.47;;;0.77;;
59193;SDS011;44967;48.598;15.650;2022-07-10T12:16:54;2.08;;;0.63;;
59193;SDS011;44967;48.598;15.650;2022-07-10T12:19:27;0.85;;;0.55;;
59193;SDS011;44967;48.598;15.650;2022-07-10T12:21:57;1.55;;;0.68;;
59193;SDS011;44967;48.598;15.650;2022-07-10T12:24:24;1.25;;;0.63;;
59193;SDS011;44967;48.598;15.650;2022-07-10T12:26:51;2.95;;;0.60;;
59193;SDS011;44967;48.598;15.650;2022-07-10T12:31:43;1.63;;;0.60;;
59193;SDS011;44967;48.598;15.650;2022-07-10T12:34:10;2.80;;;0.60;;
59193;SDS011;44967;48.598;15.650;2022-07-10T12:36:43;2.05;;;0.60;;
59193;SDS011;44967;48.598;15.650;2022-07-10T12:39:10;5.68;;;0.77;;
59193;SDS011;44967;48.598;15.650;2022-07-10T12:41:56;1.67;;;0.55;;
59193;SDS011;44967;48.598;15.650;2022-07-10T12:44:37;2.20;;;0.70;;
59193;SDS011;44967;48.598;15.650;2022-07-10T12:47:05;1.67;;;0.50;;
59193;SDS011;44967;48.598;15.650;2022-07-10T12:52:26;0.90;;;0.38;;
59193;SDS011;44967;48.598;15.650;2022-07-10T12:57:56;2.47;;;0.50;;
59193;SDS011;44967;48.598;15.650;2022-07-10T13:00:27;4.47;;;0.65;;
59193;SDS011;44967;48.598;15.650;2022-07-10T13:02:59;1.05;;;0.57;;
59193;SDS011;44967;48.598;15.650;2022-07-10T13:08:06;0.70;;;0.30;;
59193;SDS011;44967;48.598;15.650;2022-07-10T13:10:44;1.25;;;0.60;;
59193;SDS011;44967;48.598;15.650;2022-07-10T13:13:17;1.42;;;0.30;;
59193;SDS011;44967;48.598;15.650;2022-07-10T13:15:43;0.40;;;0.30;;
59193;SDS011;44967;48.598;15.650;2022-07-10T13:18:24;1.55;;;0.52;;
59193;SDS011;44967;48.598;15.650;2022-07-10T13:20:55;2.10;;;0.47;;
59193;SDS011;44967;48.598;15.650;2022-07-10T13:23:23;0.70;;;0.32;;
59193;SDS011;44967;48.598;15.650;2022-07-10T13:25:51;1.70;;;0.40;;
59193;SDS011;44967;48.598;15.650;2022-07-10T13:28:17;1.42;;;0.50;;
59193;SDS011;44967;48.598;15.650;2022-07-10T13:30:43;1.02;;;0.50;;
59193;SDS011;44967;48.598;15.650;2022-07-10T13:33:09;0.65;;;0.40;;
59193;SDS011;44967;48.598;15.650;2022-07-10T13:35:35;0.65;;;0.50;;
59193;SDS011;44967;48.598;15.650;2022-07-10T13:38:01;1.77;;;0.50;;
59193;SDS011;44967;48.598;15.650;2022-07-10T13:40:28;1.08;;;0.40;;
59193;SDS011;44967;48.598;15.650;2022-07-10T13:42:55;1.48;;;0.77;;
59193;SDS011;44967;48.598;15.650;2022-07-10T13:45:22;1.77;;;0.50;;
59193;SDS011;44967;48.598;15.650;2022-07-10T13:47:49;0.77;;;0.30;;
59193;SDS011;44967;48.598;15.650;2022-07-10T13:50:15;0.30;;;0.30;;
59193;SDS011;44967;48.598;15.650;2022-07-10T13:52:41;0.38;;;0.32;;
59193;SDS011;44967;48.598;15.650;2022-07-10T13:55:07;1.20;;;0.40;;
59193;SDS011;44967;48.598;15.650;2022-07-10T13:57:33;1.50;;;0.35;;
59193;SDS011;44967;48.598;15.650;2022-07-10T13:59:59;3.30;;;0.73;;
59193;SDS011;44967;48.598;15.650;2022-07-10T14:02:24;0.30;;;0.25;;
59193;SDS011;44967;48.598;15.650;2022-07-10T14:04:51;1.20;;;0.30;;
59193;SDS011;44967;48.598;15.650;2022-07-10T14:07:16;0.82;;;0.30;;
59193;SDS011;44967;48.598;15.650;2022-07-10T14:09:42;1.27;;;0.25;;
59193;SDS011;44967;48.598;15.650;2022-07-10T14:12:08;0.25;;;0.20;;
59193;SDS011;44967;48.598;15.650;2022-07-10T14:14:34;0.28;;;0.28;;
59193;SDS011;44967;48.598;15.650;2022-07-10T14:17:00;2.83;;;0.40;;
59193;SDS011;44967;48.598;15.650;2022-07-10T14:19:25;1.23;;;0.30;;
59193;SDS011;44967;48.598;15.650;2022-07-10T14:21:51;0.55;;;0.40;;
59193;SDS011;44967;48.598;15.650;2022-07-10T14:24:17;1.27;;;0.30;;
59193;SDS011;44967;48.598;15.650;2022-07-10T14:26:42;1.60;;;0.50;;
59193;SDS011;44967;48.598;15.650;2022-07-10T14:29:08;2.40;;;0.20;;
59193;SDS011;44967;48.598;15.650;2022-07-10T14:31:33;0.32;;;0.30;;
59193;SDS011;44967;48.598;15.650;2022-07-10T14:33:59;0.55;;;0.25;;
59193;SDS011;44967;48.598;15.650;2022-07-10T14:36:25;0.93;;;0.30;;
59193;SDS011;44967;48.598;15.650;2022-07-10T14:38:54;6.88;;;0.40;;
59193;SDS011;44967;48.598;15.650;2022-07-10T14:41:24;0.20;;;0.20;;
59193;SDS011;44967;48.598;15.650;2022-07-10T14:43:50;0.65;;;0.30;;
59193;SDS011;44967;48.598;15.650;2022-07-10T14:46:16;0.95;;;0.50;;
59193;SDS011;44967;48.598;15.650;2022-07-10T14:48:42;0.47;;;0.30;;
59193;SDS011;44967;48.598;15.650;2022-07-10T14:51:08;1.40;;;0.50;;
59193;SDS011;44967;48.598;15.650;2022-07-10T14:53:34;1.45;;;0.30;;
59193;SDS011;44967;48.598;15.650;2022-07-10T14:56:03;2.92;;;0.30;;
59193;SDS011;44967;48.598;15.650;2022-07-10T14:58:31;1.80;;;0.55;;
59193;SDS011;44967;48.598;15.650;2022-07-10T15:00:57;0.85;;;0.30;;
59193;SDS011;44967;48.598;15.650;2022-07-10T15:03:23;0.90;;;0.25;;
59193;SDS011;44967;48.598;15.650;2022-07-10T15:05:49;1.50;;;0.57;;
59193;SDS011;44967;48.598;15.650;2022-07-10T15:08:19;0.25;;;0.25;;
59193;SDS011;44967;48.598;15.650;2022-07-10T15:10:45;0.80;;;0.38;;
59193;SDS011;44967;48.598;15.650;2022-07-10T15:13:12;0.93;;;0.32;;
59193;SDS011;44967;48.598;15.650;2022-07-10T15:15:38;0.70;;;0.30;;